sensor_id;sensor_type;location;lat;lon;timestamp;temperature;humidity
38263;DHT22;24054;50.128;19.730;2022-10-23T00:01:41;19.80;56.20
38263;DHT22;24054;50.128;19.730;2022-10-23T00:04:10;19.80;56.30
38263;DHT22;24054;50.128;19.730;2022-10-23T00:06:38;19.80;56.80
38263;DHT22;24054;50.128;19.730;2022-10-23T00:09:05;19.80;56.90
38263;DHT22;24054;50.128;19.730;2022-10-23T00:11:33;19.70;56.30
38263;DHT22;24054;50.128;19.730;2022-10-23T00:14:00;19.80;56.90
38263;DHT22;24054;50.128;19.730;2022-10-23T00:16:27;19.70;56.30
38263;DHT22;24054;50.128;19.730;2022-10-23T00:18:54;19.70;56.90
38263;DHT22;24054;50.128;19.730;2022-10-23T00:21:22;19.70;56.90
38263;DHT22;24054;50.128;19.730;2022-10-23T00:23:50;19.70;56.90
38263;DHT22;24054;50.128;19.730;2022-10-23T00:26:17;19.70;56.90
38263;DHT22;24054;50.128;19.730;2022-10-23T00:28:44;19.70;56.90
38263;DHT22;24054;50.128;19.730;2022-10-23T00:31:11;19.70;56.40
38263;DHT22;24054;50.128;19.730;2022-10-23T00:33:38;19.70;56.40
38263;DHT22;24054;50.128;19.730;2022-10-23T00:36:05;19.70;57.00
38263;DHT22;24054;50.128;19.730;2022-10-23T00:38:33;19.70;56.90
38263;DHT22;24054;50.128;19.730;2022-10-23T00:41:01;19.70;56.90
38263;DHT22;24054;50.128;19.730;2022-10-23T00:43:29;19.70;57.00
38263;DHT22;24054;50.128;19.730;2022-10-23T00:45:56;19.70;57.10
38263;DHT22;24054;50.128;19.730;2022-10-23T00:48:23;19.70;57.40
38263;DHT22;24054;50.128;19.730;2022-10-23T00:50:51;19.70;57.10
38263;DHT22;24054;50.128;19.730;2022-10-23T00:53:18;19.70;57.20
38263;DHT22;24054;50.128;19.730;2022-10-23T00:55:46;19.70;57.20
38263;DHT22;24054;50.128;19.730;2022-10-23T00:58:15;19.60;57.10
38263;DHT22;24054;50.128;19.730;2022-10-23T01:00:43;19.70;57.20
38263;DHT22;24054;50.128;19.730;2022-10-23T01:03:10;19.70;57.10
38263;DHT22;24054;50.128;19.730;2022-10-23T01:05:39;19.60;57.10
38263;DHT22;24054;50.128;19.730;2022-10-23T01:08:09;19.70;57.10
38263;DHT22;24054;50.128;19.730;2022-10-23T01:10:38;19.70;57.10
38263;DHT22;24054;50.128;19.730;2022-10-23T01:13:07;19.70;57.10
38263;DHT22;24054;50.128;19.730;2022-10-23T01:15:38;19.70;56.70
38263;DHT22;24054;50.128;19.730;2022-10-23T01:18:10;19.60;57.10
38263;DHT22;24054;50.128;19.730;2022-10-23T01:20:42;19.70;57.10
38263;DHT22;24054;50.128;19.730;2022-10-23T01:23:31;19.60;57.00
38263;DHT22;24054;50.128;19.730;2022-10-23T01:26:10;19.60;56.70
38263;DHT22;24054;50.128;19.730;2022-10-23T01:28:41;19.60;57.10
38263;DHT22;24054;50.128;19.730;2022-10-23T01:31:12;19.60;56.70
38263;DHT22;24054;50.128;19.730;2022-10-23T01:33:40;19.60;57.20
38263;DHT22;24054;50.128;19.730;2022-10-23T01:36:10;19.60;57.20
38263;DHT22;24054;50.128;19.730;2022-10-23T01:38:39;19.60;57.20
38263;DHT22;24054;50.128;19.730;2022-10-23T01:41:08;19.60;57.20
38263;DHT22;24054;50.128;19.730;2022-10-23T01:43:38;19.60;57.30
38263;DHT22;24054;50.128;19.730;2022-10-23T01:46:07;19.60;57.30
38263;DHT22;24054;50.128;19.730;2022-10-23T01:48:36;19.60;57.30
38263;DHT22;24054;50.128;19.730;2022-10-23T01:51:03;19.60;56.80
38263;DHT22;24054;50.128;19.730;2022-10-23T01:53:32;19.70;58.20
38263;DHT22;24054;50.128;19.730;2022-10-23T01:56:02;19.60;56.80
38263;DHT22;24054;50.128;19.730;2022-10-23T01:58:31;19.60;57.30
38263;DHT22;24054;50.128;19.730;2022-10-23T02:01:00;19.60;57.30
38263;DHT22;24054;50.128;19.730;2022-10-23T02:03:30;19.50;57.20
38263;DHT22;24054;50.128;19.730;2022-10-23T02:05:58;19.60;57.40
38263;DHT22;24054;50.128;19.730;2022-10-23T02:08:25;19.60;57.00
38263;DHT22;24054;50.128;19.730;2022-10-23T02:10:54;19.50;57.50
38263;DHT22;24054;50.128;19.730;2022-10-23T02:13:24;19.60;57.30
38263;DHT22;24054;50.128;19.730;2022-10-23T02:15:56;19.50;56.70
38263;DHT22;24054;50.128;19.730;2022-10-23T02:18:31;19.60;57.30
38263;DHT22;24054;50.128;19.730;2022-10-23T02:20:59;19.50;57.20
38263;DHT22;24054;50.128;19.730;2022-10-23T02:23:29;19.60;57.30
38263;DHT22;24054;50.128;19.730;2022-10-23T02:25:58;19.60;57.80
38263;DHT22;24054;50.128;19.730;2022-10-23T02:28:28;19.60;57.30
38263;DHT22;24054;50.128;19.730;2022-10-23T02:30:56;19.60;57.20
38263;DHT22;24054;50.128;19.730;2022-10-23T02:33:23;19.70;57.20
38263;DHT22;24054;50.128;19.730;2022-10-23T02:35:53;19.70;56.60
38263;DHT22;24054;50.128;19.730;2022-10-23T02:38:30;19.70;57.10
38263;DHT22;24054;50.128;19.730;2022-10-23T02:40:57;19.70;57.00
38263;DHT22;24054;50.128;19.730;2022-10-23T02:43:28;19.80;57.00
38263;DHT22;24054;50.128;19.730;2022-10-23T02:45:58;19.80;56.50
38263;DHT22;24054;50.128;19.730;2022-10-23T02:48:27;19.80;57.00
38263;DHT22;24054;50.128;19.730;2022-10-23T02:50:57;19.80;56.40
38263;DHT22;24054;50.128;19.730;2022-10-23T02:53:29;19.80;56.90
38263;DHT22;24054;50.128;19.730;2022-10-23T02:56:00;19.80;56.40
38263;DHT22;24054;50.128;19.730;2022-10-23T03:00:56;19.90;56.30
38263;DHT22;24054;50.128;19.730;2022-10-23T03:03:26;19.90;56.90
38263;DHT22;24054;50.128;19.730;2022-10-23T03:05:53;19.90;56.90
38263;DHT22;24054;50.128;19.730;2022-10-23T03:08:21;19.90;56.30
38263;DHT22;24054;50.128;19.730;2022-10-23T03:10:49;19.90;56.80
38263;DHT22;24054;50.128;19.730;2022-10-23T03:13:16;19.90;56.80
38263;DHT22;24054;50.128;19.730;2022-10-23T03:15:43;19.90;56.30
38263;DHT22;24054;50.128;19.730;2022-10-23T03:18:09;19.90;56.80
38263;DHT22;24054;50.128;19.730;2022-10-23T03:20:36;19.90;56.30
38263;DHT22;24054;50.128;19.730;2022-10-23T03:23:03;20.00;56.20
38263;DHT22;24054;50.128;19.730;2022-10-23T03:25:31;19.90;56.70
38263;DHT22;24054;50.128;19.730;2022-10-23T03:27:58;20.00;56.20
38263;DHT22;24054;50.128;19.730;2022-10-23T03:30:24;20.00;56.20
38263;DHT22;24054;50.128;19.730;2022-10-23T03:32:51;20.00;56.80
38263;DHT22;24054;50.128;19.730;2022-10-23T03:35:18;20.00;56.80
38263;DHT22;24054;50.128;19.730;2022-10-23T03:37:45;20.00;56.80
38263;DHT22;24054;50.128;19.730;2022-10-23T03:40:11;20.00;56.30
38263;DHT22;24054;50.128;19.730;2022-10-23T03:42:39;20.00;56.90
38263;DHT22;24054;50.128;19.730;2022-10-23T03:45:06;19.90;56.80
38263;DHT22;24054;50.128;19.730;2022-10-23T03:47:33;20.00;56.80
38263;DHT22;24054;50.128;19.730;2022-10-23T03:50:05;20.00;56.80
38263;DHT22;24054;50.128;19.730;2022-10-23T03:52:32;19.90;58.10
38263;DHT22;24054;50.128;19.730;2022-10-23T03:54:58;19.90;58.30
38263;DHT22;24054;50.128;19.730;2022-10-23T03:57:25;19.90;57.30
38263;DHT22;24054;50.128;19.730;2022-10-23T03:59:53;20.10;60.00
38263;DHT22;24054;50.128;19.730;2022-10-23T04:02:20;19.90;57.00
38263;DHT22;24054;50.128;19.730;2022-10-23T04:04:47;19.90;57.00
38263;DHT22;24054;50.128;19.730;2022-10-23T04:07:13;19.90;57.00
38263;DHT22;24054;50.128;19.730;2022-10-23T04:09:40;19.80;59.70
38263;DHT22;24054;50.128;19.730;2022-10-23T04:12:07;19.90;57.10
38263;DHT22;24054;50.128;19.730;2022-10-23T04:14:34;19.90;57.10
38263;DHT22;24054;50.128;19.730;2022-10-23T04:17:02;19.80;57.10
38263;DHT22;24054;50.128;19.730;2022-10-23T04:19:29;19.80;57.50
38263;DHT22;24054;50.128;19.730;2022-10-23T04:21:56;19.80;56.90
38263;DHT22;24054;50.128;19.730;2022-10-23T04:24:23;19.80;56.90
38263;DHT22;24054;50.128;19.730;2022-10-23T04:26:49;19.80;57.00
38263;DHT22;24054;50.128;19.730;2022-10-23T04:29:17;19.80;56.90
38263;DHT22;24054;50.128;19.730;2022-10-23T04:31:46;19.80;57.00
38263;DHT22;24054;50.128;19.730;2022-10-23T04:34:14;19.70;56.40
38263;DHT22;24054;50.128;19.730;2022-10-23T04:36:41;19.80;56.50
38263;DHT22;24054;50.128;19.730;2022-10-23T04:39:08;19.80;57.10
38263;DHT22;24054;50.128;19.730;2022-10-23T04:41:35;19.80;56.60
38263;DHT22;24054;50.128;19.730;2022-10-23T04:44:03;19.80;57.20
38263;DHT22;24054;50.128;19.730;2022-10-23T04:46:30;19.80;57.10
38263;DHT22;24054;50.128;19.730;2022-10-23T04:48:56;19.70;57.10
38263;DHT22;24054;50.128;19.730;2022-10-23T04:51:24;19.70;57.10
38263;DHT22;24054;50.128;19.730;2022-10-23T04:53:51;19.80;57.20
38263;DHT22;24054;50.128;19.730;2022-10-23T04:56:18;19.70;57.20
38263;DHT22;24054;50.128;19.730;2022-10-23T04:58:45;19.70;57.20
38263;DHT22;24054;50.128;19.730;2022-10-23T05:01:11;19.70;57.30
38263;DHT22;24054;50.128;19.730;2022-10-23T05:03:38;19.70;57.30
38263;DHT22;24054;50.128;19.730;2022-10-23T05:06:05;19.70;57.40
38263;DHT22;24054;50.128;19.730;2022-10-23T05:08:34;19.70;59.00
38263;DHT22;24054;50.128;19.730;2022-10-23T05:11:01;19.40;60.60
38263;DHT22;24054;50.128;19.730;2022-10-23T05:13:28;19.70;57.30
38263;DHT22;24054;50.128;19.730;2022-10-23T05:15:57;19.70;66.20
38263;DHT22;24054;50.128;19.730;2022-10-23T05:18:24;19.70;57.30
38263;DHT22;24054;50.128;19.730;2022-10-23T05:20:53;19.60;57.20
38263;DHT22;24054;50.128;19.730;2022-10-23T05:23:21;19.60;56.70
38263;DHT22;24054;50.128;19.730;2022-10-23T05:25:51;19.70;57.30
38263;DHT22;24054;50.128;19.730;2022-10-23T05:28:18;19.70;57.30
38263;DHT22;24054;50.128;19.730;2022-10-23T05:30:44;19.60;57.30
38263;DHT22;24054;50.128;19.730;2022-10-23T05:33:11;19.60;57.30
38263;DHT22;24054;50.128;19.730;2022-10-23T05:35:38;19.70;57.40
38263;DHT22;24054;50.128;19.730;2022-10-23T05:38:06;19.70;56.80
38263;DHT22;24054;50.128;19.730;2022-10-23T05:40:33;19.70;57.40
38263;DHT22;24054;50.128;19.730;2022-10-23T05:43:01;19.70;57.40
38263;DHT22;24054;50.128;19.730;2022-10-23T05:45:28;19.70;56.90
38263;DHT22;24054;50.128;19.730;2022-10-23T05:47:55;19.60;57.40
38263;DHT22;24054;50.128;19.730;2022-10-23T05:50:22;19.60;57.00
38263;DHT22;24054;50.128;19.730;2022-10-23T05:52:48;19.70;57.70
38263;DHT22;24054;50.128;19.730;2022-10-23T05:55:15;19.60;57.50
38263;DHT22;24054;50.128;19.730;2022-10-23T05:57:42;19.60;57.50
38263;DHT22;24054;50.128;19.730;2022-10-23T06:00:11;19.70;57.50
38263;DHT22;24054;50.128;19.730;2022-10-23T06:02:38;19.60;57.40
38263;DHT22;24054;50.128;19.730;2022-10-23T06:05:04;19.50;57.50
38263;DHT22;24054;50.128;19.730;2022-10-23T06:07:31;19.60;57.00
38263;DHT22;24054;50.128;19.730;2022-10-23T06:09:58;19.60;57.50
38263;DHT22;24054;50.128;19.730;2022-10-23T06:12:25;19.60;57.60
38263;DHT22;24054;50.128;19.730;2022-10-23T06:14:51;19.60;57.00
38263;DHT22;24054;50.128;19.730;2022-10-23T06:17:19;19.60;57.60
38263;DHT22;24054;50.128;19.730;2022-10-23T06:19:46;19.50;56.90
38263;DHT22;24054;50.128;19.730;2022-10-23T06:22:13;19.60;57.00
38263;DHT22;24054;50.128;19.730;2022-10-23T06:24:40;19.60;57.00
38263;DHT22;24054;50.128;19.730;2022-10-23T06:27:06;19.60;57.50
38263;DHT22;24054;50.128;19.730;2022-10-23T06:29:33;19.60;57.50
38263;DHT22;24054;50.128;19.730;2022-10-23T06:32:00;19.60;57.50
38263;DHT22;24054;50.128;19.730;2022-10-23T06:34:28;19.60;57.50
38263;DHT22;24054;50.128;19.730;2022-10-23T06:36:55;19.60;57.50
38263;DHT22;24054;50.128;19.730;2022-10-23T06:39:21;19.60;57.50
38263;DHT22;24054;50.128;19.730;2022-10-23T06:41:48;19.50;57.40
38263;DHT22;24054;50.128;19.730;2022-10-23T06:44:15;19.50;57.00
38263;DHT22;24054;50.128;19.730;2022-10-23T06:46:42;19.60;57.00
38263;DHT22;24054;50.128;19.730;2022-10-23T06:49:11;19.50;57.50
38263;DHT22;24054;50.128;19.730;2022-10-23T06:51:40;19.60;57.00
38263;DHT22;24054;50.128;19.730;2022-10-23T06:54:06;19.60;57.00
38263;DHT22;24054;50.128;19.730;2022-10-23T06:56:33;19.60;57.00
38263;DHT22;24054;50.128;19.730;2022-10-23T06:59:00;19.70;57.00
38263;DHT22;24054;50.128;19.730;2022-10-23T07:01:27;19.70;57.50
38263;DHT22;24054;50.128;19.730;2022-10-23T07:03:54;19.70;57.40
38263;DHT22;24054;50.128;19.730;2022-10-23T07:06:21;19.70;56.80
38263;DHT22;24054;50.128;19.730;2022-10-23T07:08:49;19.80;56.90
38263;DHT22;24054;50.128;19.730;2022-10-23T07:11:16;19.80;57.40
38263;DHT22;24054;50.128;19.730;2022-10-23T07:13:43;19.80;57.40
38263;DHT22;24054;50.128;19.730;2022-10-23T07:16:11;19.80;57.30
38263;DHT22;24054;50.128;19.730;2022-10-23T07:18:38;19.80;57.30
38263;DHT22;24054;50.128;19.730;2022-10-23T07:21:05;19.80;57.30
38263;DHT22;24054;50.128;19.730;2022-10-23T07:23:32;19.90;57.30
38263;DHT22;24054;50.128;19.730;2022-10-23T07:26:03;19.80;56.70
38263;DHT22;24054;50.128;19.730;2022-10-23T07:28:30;19.90;57.10
38263;DHT22;24054;50.128;19.730;2022-10-23T07:30:56;19.90;57.10
38263;DHT22;24054;50.128;19.730;2022-10-23T07:33:23;19.90;57.10
38263;DHT22;24054;50.128;19.730;2022-10-23T07:35:50;19.90;57.10
38263;DHT22;24054;50.128;19.730;2022-10-23T07:38:17;19.90;57.10
38263;DHT22;24054;50.128;19.730;2022-10-23T07:40:43;19.90;57.10
38263;DHT22;24054;50.128;19.730;2022-10-23T07:43:12;19.90;56.50
38263;DHT22;24054;50.128;19.730;2022-10-23T07:45:38;20.00;56.60
38263;DHT22;24054;50.128;19.730;2022-10-23T07:48:05;20.00;57.10
38263;DHT22;24054;50.128;19.730;2022-10-23T07:50:32;20.00;57.10
38263;DHT22;24054;50.128;19.730;2022-10-23T07:52:59;19.90;57.70
38263;DHT22;24054;50.128;19.730;2022-10-23T07:55:26;20.00;57.40
38263;DHT22;24054;50.128;19.730;2022-10-23T07:57:52;20.00;56.60
38263;DHT22;24054;50.128;19.730;2022-10-23T08:00:21;20.00;57.10
38263;DHT22;24054;50.128;19.730;2022-10-23T08:02:47;19.90;57.00
38263;DHT22;24054;50.128;19.730;2022-10-23T08:05:18;20.00;57.10
38263;DHT22;24054;50.128;19.730;2022-10-23T08:07:45;20.00;57.00
38263;DHT22;24054;50.128;19.730;2022-10-23T08:10:12;20.00;57.10
38263;DHT22;24054;50.128;19.730;2022-10-23T08:12:38;20.00;57.10
38263;DHT22;24054;50.128;19.730;2022-10-23T08:15:06;20.00;57.20
38263;DHT22;24054;50.128;19.730;2022-10-23T08:17:34;19.90;57.10
38263;DHT22;24054;50.128;19.730;2022-10-23T08:20:01;19.90;56.70
38263;DHT22;24054;50.128;19.730;2022-10-23T08:22:27;19.90;56.80
38263;DHT22;24054;50.128;19.730;2022-10-23T08:24:54;19.90;56.90
38263;DHT22;24054;50.128;19.730;2022-10-23T08:27:21;19.90;57.60
38263;DHT22;24054;50.128;19.730;2022-10-23T08:29:47;19.90;62.70
38263;DHT22;24054;50.128;19.730;2022-10-23T08:32:14;19.90;57.90
38263;DHT22;24054;50.128;19.730;2022-10-23T08:34:42;19.80;56.80
38263;DHT22;24054;50.128;19.730;2022-10-23T08:37:09;19.90;57.40
38263;DHT22;24054;50.128;19.730;2022-10-23T08:39:36;19.90;57.40
38263;DHT22;24054;50.128;19.730;2022-10-23T08:42:03;19.90;57.40
38263;DHT22;24054;50.128;19.730;2022-10-23T08:44:30;19.90;57.40
38263;DHT22;24054;50.128;19.730;2022-10-23T08:46:59;19.90;57.40
38263;DHT22;24054;50.128;19.730;2022-10-23T08:49:29;19.90;57.40
38263;DHT22;24054;50.128;19.730;2022-10-23T08:52:04;19.90;57.00
38263;DHT22;24054;50.128;19.730;2022-10-23T08:54:33;19.90;57.40
38263;DHT22;24054;50.128;19.730;2022-10-23T08:57:09;19.90;57.40
38263;DHT22;24054;50.128;19.730;2022-10-23T08:59:37;19.90;57.40
38263;DHT22;24054;50.128;19.730;2022-10-23T09:02:08;19.90;57.40
38263;DHT22;24054;50.128;19.730;2022-10-23T09:04:36;19.90;57.50
38263;DHT22;24054;50.128;19.730;2022-10-23T09:07:06;19.90;57.50
38263;DHT22;24054;50.128;19.730;2022-10-23T09:09:42;19.90;57.40
38263;DHT22;24054;50.128;19.730;2022-10-23T09:12:11;19.90;57.00
38263;DHT22;24054;50.128;19.730;2022-10-23T09:17:22;19.90;57.50
38263;DHT22;24054;50.128;19.730;2022-10-23T09:19:52;19.90;57.60
38263;DHT22;24054;50.128;19.730;2022-10-23T09:22:21;19.90;57.10
38263;DHT22;24054;50.128;19.730;2022-10-23T09:24:48;19.90;58.40
38263;DHT22;24054;50.128;19.730;2022-10-23T09:27:15;19.90;61.80
38263;DHT22;24054;50.128;19.730;2022-10-23T09:29:46;19.80;60.90
38263;DHT22;24054;50.128;19.730;2022-10-23T09:32:13;19.90;57.10
38263;DHT22;24054;50.128;19.730;2022-10-23T09:34:48;19.90;57.70
38263;DHT22;24054;50.128;19.730;2022-10-23T09:37:19;19.90;59.00
38263;DHT22;24054;50.128;19.730;2022-10-23T09:39:47;19.90;58.20
38263;DHT22;24054;50.128;19.730;2022-10-23T09:42:20;19.90;58.30
38263;DHT22;24054;50.128;19.730;2022-10-23T09:44:47;19.90;57.90
38263;DHT22;24054;50.128;19.730;2022-10-23T09:47:15;19.90;58.10
38263;DHT22;24054;50.128;19.730;2022-10-23T09:49:46;19.90;60.00
38263;DHT22;24054;50.128;19.730;2022-10-23T09:52:21;19.90;59.80
38263;DHT22;24054;50.128;19.730;2022-10-23T09:54:50;19.80;57.40
38263;DHT22;24054;50.128;19.730;2022-10-23T09:57:20;19.80;60.40
38263;DHT22;24054;50.128;19.730;2022-10-23T09:59:49;19.90;58.70
38263;DHT22;24054;50.128;19.730;2022-10-23T10:02:19;20.00;59.10
38263;DHT22;24054;50.128;19.730;2022-10-23T10:04:49;19.80;60.50
38263;DHT22;24054;50.128;19.730;2022-10-23T10:07:17;19.80;60.60
38263;DHT22;24054;50.128;19.730;2022-10-23T10:09:44;20.00;64.20
38263;DHT22;24054;50.128;19.730;2022-10-23T10:12:17;20.00;59.30
38263;DHT22;24054;50.128;19.730;2022-10-23T10:14:47;20.00;57.90
38263;DHT22;24054;50.128;19.730;2022-10-23T10:17:18;19.80;59.20
38263;DHT22;24054;50.128;19.730;2022-10-23T10:19:52;20.10;60.20
38263;DHT22;24054;50.128;19.730;2022-10-23T10:22:25;19.90;62.10
38263;DHT22;24054;50.128;19.730;2022-10-23T10:24:55;19.80;60.80
38263;DHT22;24054;50.128;19.730;2022-10-23T10:27:30;19.90;61.10
38263;DHT22;24054;50.128;19.730;2022-10-23T10:30:00;20.00;62.70
38263;DHT22;24054;50.128;19.730;2022-10-23T10:32:34;19.90;62.10
38263;DHT22;24054;50.128;19.730;2022-10-23T10:35:04;20.00;61.20
38263;DHT22;24054;50.128;19.730;2022-10-23T10:37:39;19.90;61.20
38263;DHT22;24054;50.128;19.730;2022-10-23T10:40:12;19.90;61.50
38263;DHT22;24054;50.128;19.730;2022-10-23T10:42:49;19.90;61.00
38263;DHT22;24054;50.128;19.730;2022-10-23T10:45:28;19.90;61.10
38263;DHT22;24054;50.128;19.730;2022-10-23T10:48:13;19.70;61.00
38263;DHT22;24054;50.128;19.730;2022-10-23T10:50:42;20.00;57.40
38263;DHT22;24054;50.128;19.730;2022-10-23T10:53:13;19.90;60.20
38263;DHT22;24054;50.128;19.730;2022-10-23T10:55:43;20.00;61.90
38263;DHT22;24054;50.128;19.730;2022-10-23T10:58:14;20.00;64.30
38263;DHT22;24054;50.128;19.730;2022-10-23T11:00:42;19.90;61.60
38263;DHT22;24054;50.128;19.730;2022-10-23T11:03:11;20.00;62.00
38263;DHT22;24054;50.128;19.730;2022-10-23T11:05:47;19.90;61.60
38263;DHT22;24054;50.128;19.730;2022-10-23T11:08:15;19.90;60.60
38263;DHT22;24054;50.128;19.730;2022-10-23T11:10:45;20.30;59.10
38263;DHT22;24054;50.128;19.730;2022-10-23T11:13:21;19.90;58.90
38263;DHT22;24054;50.128;19.730;2022-10-23T11:15:50;19.90;57.30
38263;DHT22;24054;50.128;19.730;2022-10-23T11:18:20;20.00;58.00
38263;DHT22;24054;50.128;19.730;2022-10-23T11:20:57;20.00;59.60
38263;DHT22;24054;50.128;19.730;2022-10-23T11:25:55;20.00;56.90
38263;DHT22;24054;50.128;19.730;2022-10-23T11:28:33;20.00;57.40
38263;DHT22;24054;50.128;19.730;2022-10-23T11:31:04;20.00;57.30
38263;DHT22;24054;50.128;19.730;2022-10-23T11:33:48;20.00;57.40
38263;DHT22;24054;50.128;19.730;2022-10-23T11:36:19;20.00;56.90
38263;DHT22;24054;50.128;19.730;2022-10-23T11:38:47;20.00;57.40
38263;DHT22;24054;50.128;19.730;2022-10-23T11:41:16;20.00;57.40
38263;DHT22;24054;50.128;19.730;2022-10-23T11:43:47;20.00;57.10
38263;DHT22;24054;50.128;19.730;2022-10-23T11:46:27;20.00;57.50
38263;DHT22;24054;50.128;19.730;2022-10-23T11:48:55;20.00;57.40
38263;DHT22;24054;50.128;19.730;2022-10-23T11:51:25;20.10;57.20
38263;DHT22;24054;50.128;19.730;2022-10-23T11:54:03;20.10;57.40
38263;DHT22;24054;50.128;19.730;2022-10-23T11:56:30;20.00;57.50
38263;DHT22;24054;50.128;19.730;2022-10-23T11:59:11;20.10;57.10
38263;DHT22;24054;50.128;19.730;2022-10-23T12:01:45;20.10;57.30
38263;DHT22;24054;50.128;19.730;2022-10-23T12:04:15;20.20;57.70
38263;DHT22;24054;50.128;19.730;2022-10-23T12:06:44;20.10;57.40
38263;DHT22;24054;50.128;19.730;2022-10-23T12:09:20;20.10;57.50
38263;DHT22;24054;50.128;19.730;2022-10-23T12:11:48;20.10;57.40
38263;DHT22;24054;50.128;19.730;2022-10-23T12:14:27;20.10;56.90
38263;DHT22;24054;50.128;19.730;2022-10-23T12:16:54;20.10;56.90
38263;DHT22;24054;50.128;19.730;2022-10-23T12:19:21;20.10;57.30
38263;DHT22;24054;50.128;19.730;2022-10-23T12:21:50;20.10;57.40
38263;DHT22;24054;50.128;19.730;2022-10-23T12:27:18;20.10;57.30
38263;DHT22;24054;50.128;19.730;2022-10-23T12:29:55;20.10;57.30
38263;DHT22;24054;50.128;19.730;2022-10-23T12:32:33;20.10;56.90
38263;DHT22;24054;50.128;19.730;2022-10-23T12:35:08;20.10;57.30
38263;DHT22;24054;50.128;19.730;2022-10-23T12:37:45;20.10;57.30
38263;DHT22;24054;50.128;19.730;2022-10-23T12:40:15;20.10;57.40
38263;DHT22;24054;50.128;19.730;2022-10-23T12:42:47;20.10;56.90
38263;DHT22;24054;50.128;19.730;2022-10-23T12:45:17;20.10;57.40
38263;DHT22;24054;50.128;19.730;2022-10-23T12:47:45;20.10;57.50
38263;DHT22;24054;50.128;19.730;2022-10-23T12:50:15;20.10;57.60
38263;DHT22;24054;50.128;19.730;2022-10-23T12:52:49;20.10;57.50
38263;DHT22;24054;50.128;19.730;2022-10-23T12:55:16;20.10;57.50
38263;DHT22;24054;50.128;19.730;2022-10-23T12:57:43;20.10;57.90
38263;DHT22;24054;50.128;19.730;2022-10-23T13:00:13;20.10;57.30
38263;DHT22;24054;50.128;19.730;2022-10-23T13:02:42;20.10;57.10
38263;DHT22;24054;50.128;19.730;2022-10-23T13:05:10;20.10;57.20
38263;DHT22;24054;50.128;19.730;2022-10-23T13:07:41;20.10;57.50
38263;DHT22;24054;50.128;19.730;2022-10-23T13:10:10;20.10;57.50
38263;DHT22;24054;50.128;19.730;2022-10-23T13:12:39;20.10;57.50
38263;DHT22;24054;50.128;19.730;2022-10-23T13:15:16;20.10;57.60
38263;DHT22;24054;50.128;19.730;2022-10-23T13:17:45;20.00;57.00
38263;DHT22;24054;50.128;19.730;2022-10-23T13:20:19;19.40;57.20
38263;DHT22;24054;50.128;19.730;2022-10-23T13:22:47;20.10;57.30
38263;DHT22;24054;50.128;19.730;2022-10-23T13:25:21;20.00;57.00
38263;DHT22;24054;50.128;19.730;2022-10-23T13:27:48;20.10;57.00
38263;DHT22;24054;50.128;19.730;2022-10-23T13:32:58;20.10;57.40
38263;DHT22;24054;50.128;19.730;2022-10-23T13:35:25;20.10;57.50
38263;DHT22;24054;50.128;19.730;2022-10-23T13:37:52;20.10;57.50
38263;DHT22;24054;50.128;19.730;2022-10-23T13:40:20;20.00;57.00
38263;DHT22;24054;50.128;19.730;2022-10-23T13:42:47;20.00;57.50
38263;DHT22;24054;50.128;19.730;2022-10-23T13:45:17;20.20;63.30
38263;DHT22;24054;50.128;19.730;2022-10-23T13:47:44;20.00;58.90
38263;DHT22;24054;50.128;19.730;2022-10-23T13:50:12;20.10;57.90
38263;DHT22;24054;50.128;19.730;2022-10-23T13:52:39;20.00;57.60
38263;DHT22;24054;50.128;19.730;2022-10-23T13:55:09;20.10;57.20
38263;DHT22;24054;50.128;19.730;2022-10-23T13:57:37;20.10;57.90
38263;DHT22;24054;50.128;19.730;2022-10-23T14:00:04;20.00;58.30
38263;DHT22;24054;50.128;19.730;2022-10-23T14:02:31;20.10;57.80
38263;DHT22;24054;50.128;19.730;2022-10-23T14:04:58;20.00;57.80
38263;DHT22;24054;50.128;19.730;2022-10-23T14:07:26;20.30;58.60
38263;DHT22;24054;50.128;19.730;2022-10-23T14:09:53;20.00;59.20
38263;DHT22;24054;50.128;19.730;2022-10-23T14:12:23;20.00;59.20
38263;DHT22;24054;50.128;19.730;2022-10-23T14:14:50;20.10;57.70
38263;DHT22;24054;50.128;19.730;2022-10-23T14:17:17;20.00;58.30
38263;DHT22;24054;50.128;19.730;2022-10-23T14:19:44;20.10;59.10
38263;DHT22;24054;50.128;19.730;2022-10-23T14:22:11;20.00;58.70
38263;DHT22;24054;50.128;19.730;2022-10-23T14:24:39;20.10;58.40
38263;DHT22;24054;50.128;19.730;2022-10-23T14:27:06;20.00;58.90
38263;DHT22;24054;50.128;19.730;2022-10-23T14:29:33;20.00;58.90
38263;DHT22;24054;50.128;19.730;2022-10-23T14:31:59;20.00;58.90
38263;DHT22;24054;50.128;19.730;2022-10-23T14:34:26;20.00;58.90
38263;DHT22;24054;50.128;19.730;2022-10-23T14:36:53;20.00;58.80
38263;DHT22;24054;50.128;19.730;2022-10-23T14:39:20;20.10;59.50
38263;DHT22;24054;50.128;19.730;2022-10-23T14:41:49;20.00;59.10
38263;DHT22;24054;50.128;19.730;2022-10-23T14:44:17;19.70;61.00
38263;DHT22;24054;50.128;19.730;2022-10-23T14:46:43;20.00;60.00
38263;DHT22;24054;50.128;19.730;2022-10-23T14:49:10;20.00;57.20
38263;DHT22;24054;50.128;19.730;2022-10-23T14:51:37;20.00;57.80
38263;DHT22;24054;50.128;19.730;2022-10-23T14:54:04;20.00;57.20
38263;DHT22;24054;50.128;19.730;2022-10-23T14:56:32;20.00;57.70
38263;DHT22;24054;50.128;19.730;2022-10-23T14:59:03;20.00;57.40
38263;DHT22;24054;50.128;19.730;2022-10-23T15:01:31;20.00;57.80
38263;DHT22;24054;50.128;19.730;2022-10-23T15:03:58;20.00;58.00
38263;DHT22;24054;50.128;19.730;2022-10-23T15:06:25;20.00;58.00
38263;DHT22;24054;50.128;19.730;2022-10-23T15:08:52;20.00;58.00
38263;DHT22;24054;50.128;19.730;2022-10-23T15:11:19;20.00;57.60
38263;DHT22;24054;50.128;19.730;2022-10-23T15:13:46;20.00;57.50
38263;DHT22;24054;50.128;19.730;2022-10-23T15:16:15;20.00;57.60
38263;DHT22;24054;50.128;19.730;2022-10-23T15:18:41;19.90;57.40
38263;DHT22;24054;50.128;19.730;2022-10-23T15:21:08;20.00;58.00
38263;DHT22;24054;50.128;19.730;2022-10-23T15:23:36;20.00;57.50
38263;DHT22;24054;50.128;19.730;2022-10-23T15:26:05;20.00;57.60
38263;DHT22;24054;50.128;19.730;2022-10-23T15:28:32;20.00;58.00
38263;DHT22;24054;50.128;19.730;2022-10-23T15:30:59;20.00;58.10
38263;DHT22;24054;50.128;19.730;2022-10-23T15:33:28;20.00;58.10
38263;DHT22;24054;50.128;19.730;2022-10-23T15:35:55;19.90;58.00
38263;DHT22;24054;50.128;19.730;2022-10-23T15:38:22;19.90;57.70